createdAt,value
2022-09-05T00:03:05.053Z,35.59
2022-09-05T00:08:22.762Z,35.59
2022-09-05T00:13:30.992Z,35.66
2022-09-05T00:24:17.088Z,35.58
2022-09-05T00:25:14.011Z,35.62
2022-09-05T00:31:08.929Z,35.44
2022-09-05T00:36:09.846Z,35.26
2022-09-05T00:41:13.962Z,35.35
2022-09-05T00:46:22.672Z,35.29
2022-09-05T00:51:39.654Z,35.40
2022-09-05T00:56:54.799Z,35.12
2022-09-05T01:02:07.336Z,35.13
2022-09-05T01:07:47.305Z,35.47
2022-09-05T01:13:22.959Z,35.45
2022-09-05T01:18:39.559Z,35.35
2022-09-05T01:24:04.675Z,35.18
2022-09-05T01:29:19.459Z,34.95
2022-09-05T01:34:39.237Z,34.88
2022-09-05T01:40:16.143Z,34.93
2022-09-05T01:45:40.270Z,35.16
2022-09-05T01:50:58.351Z,34.88
2022-09-05T01:56:16.543Z,35.09
2022-09-05T02:01:32.058Z,35.05
2022-09-05T02:07:20.044Z,35.04
2022-09-05T02:12:40.410Z,34.97
2022-09-05T02:17:50.609Z,34.94
2022-09-05T02:23:40.718Z,34.95
2022-09-05T02:28:56.350Z,34.93
2022-09-05T02:34:04.427Z,35.10
2022-09-05T02:45:07.477Z,34.75
2022-09-05T02:45:11.420Z,34.88
2022-09-05T02:54:12.840Z,34.95
2022-09-05T02:57:42.317Z,34.86
2022-09-05T03:02:25.015Z,34.94
2022-09-05T03:07:46.418Z,34.93
2022-09-05T03:13:02.397Z,35.19
2022-09-05T03:18:31.198Z,35.15
2022-09-05T03:23:35.959Z,34.87
2022-09-05T03:28:55.947Z,34.78
2022-09-05T03:34:22.846Z,35.03
2022-09-05T03:40:00.662Z,35.17
2022-09-05T03:45:29.853Z,34.92
2022-09-05T03:57:04.465Z,34.84
2022-09-05T03:57:18.179Z,35.18
2022-09-05T04:04:03.663Z,35.23
2022-09-05T04:08:26.467Z,35.50
2022-09-05T04:13:17.261Z,35.48
2022-09-05T04:18:33.786Z,35.46
2022-09-05T04:23:48.452Z,35.43
2022-09-05T04:29:16.655Z,35.51
2022-09-05T04:34:36.658Z,35.27
2022-09-05T04:39:38.658Z,35.26
2022-09-05T04:44:46.197Z,35.15
2022-09-05T04:50:06.254Z,35.13
2022-09-05T04:55:16.728Z,34.95
2022-09-05T05:06:00.144Z,35.06
2022-09-05T05:06:15.941Z,34.96
2022-09-05T05:17:54.099Z,34.87
2022-09-05T05:18:10.722Z,35.13
2022-09-05T05:22:31.323Z,35.01
2022-09-05T05:27:50.106Z,35.08
2022-09-05T05:32:54.015Z,35.04
2022-09-05T05:38:32.198Z,35.16
2022-09-05T05:43:44.172Z,34.75
2022-09-05T05:48:57.346Z,35.37
2022-09-05T05:54:24.578Z,35.14
2022-09-05T05:59:38.210Z,35.35
2022-09-05T06:04:55.108Z,35.34
2022-09-05T06:14:50.906Z,35.62
2022-09-05T06:16:07.838Z,35.77
2022-09-05T06:22:09.279Z,35.72
2022-09-05T06:26:52.470Z,35.80
2022-09-05T06:32:17.980Z,35.57
2022-09-05T06:37:58.867Z,35.51
2022-09-05T06:43:00.630Z,35.32
2022-09-05T06:48:35.248Z,35.41
2022-09-05T06:54:24.869Z,35.49
2022-09-05T07:00:04.049Z,35.49
2022-09-05T07:05:44.546Z,35.42
2022-09-05T07:11:17.276Z,35.58
2022-09-05T07:16:47.639Z,35.68
2022-09-05T07:22:47.578Z,35.73
2022-09-05T07:28:26.761Z,35.67
2022-09-05T07:33:22.776Z,35.67
2022-09-05T07:38:32.637Z,35.83
2022-09-05T07:43:50.968Z,35.77
2022-09-05T07:49:01.023Z,36.02
2022-09-05T07:57:00.085Z,35.72
2022-09-05T07:59:35.749Z,35.89
2022-09-05T08:04:41.022Z,35.89
2022-09-05T08:10:06.109Z,36.01
2022-09-05T08:15:23.738Z,36.43
2022-09-05T08:20:44.315Z,36.95
2022-09-05T08:26:30.078Z,36.88
2022-09-05T08:31:41.798Z,36.76
2022-09-05T08:36:50.242Z,36.76
2022-09-05T08:42:10.311Z,36.85
2022-09-05T08:47:18.643Z,36.96
2022-09-05T08:52:51.225Z,37.32
2022-09-05T08:58:00.938Z,37.18
2022-09-05T09:03:38.158Z,36.81
2022-09-05T09:08:56.219Z,36.99
2022-09-05T09:14:31.169Z,36.68
2022-09-05T09:20:10.260Z,36.61
2022-09-05T09:25:21.160Z,37.02
2022-09-05T09:30:31.108Z,36.93
2022-09-05T09:35:59.140Z,36.20
2022-09-05T09:41:39.865Z,36.16
2022-09-05T09:46:51.142Z,35.18
2022-09-05T09:52:22.414Z,34.77
2022-09-05T09:57:46.045Z,33.22
2022-09-05T10:05:18.263Z,35.28
2022-09-05T10:10:47.005Z,32.85
2022-09-05T10:14:54.693Z,31.81
2022-09-05T10:20:12.648Z,34.80
2022-09-05T10:25:24.493Z,32.83
2022-09-05T10:33:24.267Z,33.17
2022-09-05T10:36:17.573Z,32.52
2022-09-05T10:41:30.744Z,33.19
2022-09-05T10:47:00.180Z,32.04
2022-09-05T10:52:18.559Z,32.13
2022-09-05T10:57:24.669Z,32.34
2022-09-05T11:02:36.757Z,32.23
2022-09-05T11:07:53.029Z,32.69
2022-09-05T11:13:11.726Z,32.72
2022-09-05T11:18:56.191Z,32.39
2022-09-05T11:24:21.327Z,32.81
2022-09-05T11:29:36.809Z,33.22
2022-09-05T11:40:00.279Z,32.78
2022-09-05T11:41:05.293Z,32.90
2022-09-05T11:46:14.425Z,33.04
2022-09-05T11:51:16.276Z,32.96
2022-09-05T11:56:51.650Z,32.68
2022-09-05T12:02:23.357Z,32.60
2022-09-05T12:07:46.265Z,32.80
2022-09-05T12:13:17.651Z,32.53
2022-09-05T12:18:33.158Z,32.38
2022-09-05T12:24:49.747Z,31.42
2022-09-05T12:29:36.142Z,32.46
2022-09-05T12:36:12.498Z,32.17
2022-09-05T12:41:36.333Z,32.09
2022-09-05T12:46:20.345Z,32.17
2022-09-05T12:51:45.855Z,32.07
2022-09-05T12:58:53.627Z,32.15
2022-09-05T13:03:14.679Z,32.39
2022-09-05T13:07:58.527Z,32.19
2022-09-05T13:14:54.647Z,32.42
2022-09-05T13:18:41.070Z,32.46
2022-09-05T13:23:58.507Z,32.45
2022-09-05T13:29:13.266Z,32.61
2022-09-05T13:38:30.861Z,32.41
2022-09-05T13:40:10.695Z,32.61
2022-09-05T13:45:18.906Z,32.22
2022-09-05T13:50:53.162Z,32.64
2022-09-05T13:56:03.784Z,32.40
2022-09-05T14:01:45.711Z,32.59
2022-09-05T14:12:44.192Z,32.28
2022-09-05T14:17:58.785Z,32.43
2022-09-05T14:23:07.588Z,32.78
2022-09-05T14:28:15.231Z,31.39
2022-09-05T14:37:55.226Z,32.18
2022-09-05T14:39:23.285Z,31.88
2022-09-05T14:44:49.243Z,32.72
2022-09-05T14:50:00.926Z,32.92
2022-09-05T14:55:20.041Z,30.79
2022-09-05T15:02:43.898Z,31.43
2022-09-05T15:05:50.585Z,32.31
2022-09-05T15:12:17.668Z,31.44
2022-09-05T15:16:20.318Z,31.70
2022-09-05T15:21:33.328Z,31.55
2022-09-05T15:26:48.480Z,30.61
2022-09-05T15:32:14.615Z,31.11
2022-09-05T15:37:31.723Z,31.38
2022-09-05T15:42:37.351Z,30.18
2022-09-05T15:47:47.365Z,31.33
2022-09-05T15:52:54.840Z,31.34
2022-09-05T15:58:05.293Z,31.86
2022-09-05T16:04:47.817Z,31.46
2022-09-05T16:10:42.875Z,30.45
2022-09-05T16:14:29.855Z,30.83
2022-09-05T16:23:19.909Z,31.46
2022-09-05T16:25:20.370Z,30.42
2022-09-05T16:30:34.273Z,30.64
2022-09-05T16:35:45.217Z,30.94
2022-09-05T16:41:12.370Z,30.96
2022-09-05T16:46:29.393Z,30.96
2022-09-05T16:51:38.523Z,31.01
2022-09-05T16:56:49.192Z,31.08
2022-09-05T17:02:10.714Z,31.81
2022-09-05T17:07:30.718Z,31.30
2022-09-05T17:12:35.487Z,31.46
2022-09-05T17:18:22.292Z,30.08
2022-09-05T17:29:07.341Z,30.31
2022-09-05T17:29:25.040Z,30.40
2022-09-05T17:34:18.777Z,30.40
2022-09-05T17:39:44.238Z,30.35
2022-09-05T17:45:00.175Z,30.57
2022-09-05T17:50:20.782Z,29.86
2022-09-05T17:55:37.960Z,29.84
2022-09-05T18:00:47.529Z,29.50
2022-09-05T18:06:01.431Z,29.60
2022-09-05T18:11:08.917Z,29.56
2022-09-05T18:17:36.858Z,29.91
2022-09-05T18:22:21.180Z,30.21
2022-09-05T18:28:04.663Z,30.87
2022-09-05T18:33:55.702Z,30.94
2022-09-05T18:38:50.787Z,31.14
2022-09-05T18:44:12.984Z,31.26
2022-09-05T18:50:24.515Z,31.26
2022-09-05T18:56:12.706Z,31.36
2022-09-05T19:00:49.699Z,31.25
2022-09-05T19:06:36.307Z,31.21
2022-09-05T19:11:53.134Z,31.23
2022-09-05T19:17:14.462Z,31.28
2022-09-05T19:23:08.196Z,31.47
2022-09-05T19:31:21.089Z,31.47
2022-09-05T19:37:11.971Z,31.56
2022-09-05T19:41:45.662Z,31.52
2022-09-05T19:47:37.188Z,31.63
2022-09-05T19:49:28.249Z,31.86
2022-09-05T19:54:38.460Z,31.77
2022-09-05T19:59:42.811Z,31.70
2022-09-05T20:04:52.880Z,31.52
2022-09-05T20:09:57.096Z,31.65
2022-09-05T20:15:21.384Z,31.76
2022-09-05T20:20:31.456Z,31.70
2022-09-05T20:25:41.768Z,32.00
2022-09-05T20:30:46.245Z,31.45
2022-09-05T20:39:08.656Z,31.68
2022-09-05T20:43:15.640Z,32.12
2022-09-05T20:50:32.069Z,31.99
2022-09-05T20:54:27.971Z,31.46
2022-09-05T20:57:33.234Z,31.50
2022-09-05T21:02:35.052Z,31.53
2022-09-05T21:07:39.987Z,31.68
2022-09-05T21:12:51.126Z,31.85
2022-09-05T21:17:53.201Z,31.53
2022-09-05T21:22:55.109Z,31.35
2022-09-05T21:28:01.036Z,31.35
2022-09-05T21:33:08.281Z,31.61
2022-09-05T21:38:32.704Z,31.55
2022-09-05T21:47:35.735Z,31.50
2022-09-05T21:49:03.491Z,31.41
2022-09-05T21:59:13.468Z,31.68
2022-09-05T21:59:41.610Z,31.98
2022-09-05T22:04:48.157Z,32.23
2022-09-05T22:09:50.150Z,32.57
2022-09-05T22:14:52.084Z,32.77
2022-09-05T22:19:54.578Z,32.95
2022-09-05T22:25:02.988Z,32.95
2022-09-05T22:30:07.314Z,33.15
2022-09-05T22:35:27.074Z,33.56
2022-09-05T22:40:31.401Z,33.71
2022-09-05T22:45:35.248Z,33.92
2022-09-05T22:50:38.016Z,33.94
2022-09-05T22:55:42.174Z,33.98
2022-09-05T23:00:44.736Z,34.54
2022-09-05T23:05:46.541Z,34.50
2022-09-05T23:10:48.443Z,34.80
2022-09-05T23:15:51.078Z,35.36
2022-09-05T23:20:53.263Z,35.62
2022-09-05T23:26:04.199Z,35.64
2022-09-05T23:31:06.976Z,35.86
2022-09-05T23:36:13.855Z,35.92
2022-09-05T23:41:16.387Z,36.52
2022-09-05T23:46:18.284Z,36.23
2022-09-05T23:51:20.578Z,36.59
2022-09-05T23:56:22.625Z,36.92
